Time;durP1;ratioP1;P1;durP2;ratioP2;P2;SDS_P1;SDS_P2;PMS_P1;PMS_P2;Temp;Humidity;BMP_temperature;BMP_pressure;BME280_temperature;BME280_humidity;BME280_pressure;Samples;Min_cycle;Max_cycle;Signal;HPM_P1;HPM_P2
2023/01/28 00:01:38;;;;;;;;;;;-0.70;99.90;;;;;;5095283;28;19919;-68
2023/01/28 00:04:04;;;;;;;;;;;-0.70;99.90;;;;;;5095367;28;20006;-68
2023/01/28 00:06:29;;;;;;;;;;;-0.70;99.90;;;;;;5093937;28;19912;-68
2023/01/28 00:08:55;;;;;;;;;;;-0.70;99.90;;;;;;5095048;28;19912;-68
2023/01/28 00:11:23;;;;;;;;;;;-0.70;99.90;;;;;;5095180;28;20279;-68
2023/01/28 00:13:52;;;;;;;;;;;-0.70;99.90;;;;;;5095055;28;20477;-68
2023/01/28 00:16:17;;;;;;;;;;;-0.70;99.90;;;;;;5093577;28;19983;-68
2023/01/28 00:18:43;;;;;;;;;;;-0.60;99.90;;;;;;5095060;28;19938;-68
2023/01/28 00:21:10;;;;;;;;;;;-0.60;99.90;;;;;;5095078;28;19959;-68
2023/01/28 00:23:37;;;;;;;;;;;-0.70;99.90;;;;;;5076710;28;20347;-68
2023/01/28 00:26:04;;;;;;;;;;;-0.60;99.90;;;;;;5064679;28;19947;-68
2023/01/28 00:28:29;;;;;;;;;;;-0.60;99.90;;;;;;5074285;28;19917;-68
2023/01/28 00:30:55;;;;;;;;;;;-0.60;99.90;;;;;;5074518;28;20349;-68
2023/01/28 00:33:21;;;;;;;;;;;-0.60;99.90;;;;;;5074374;28;19927;-68
2023/01/28 00:35:47;;;;;;;;;;;-0.60;99.90;;;;;;5084303;28;20267;-68
2023/01/28 00:38:13;;;;;;;;;;;-0.60;99.90;;;;;;5076441;28;19912;-68
2023/01/28 00:40:39;;;;;;;;;;;-0.60;99.90;;;;;;5076520;28;19938;-68
2023/01/28 00:43:04;;;;;;;;;;;-0.60;99.90;;;;;;5094671;28;19919;-68
2023/01/28 00:45:30;;;;;;;;;;;-0.60;99.90;;;;;;5087554;28;19912;-68
2023/01/28 00:47:55;;;;;;;;;;;-0.60;99.90;;;;;;5074189;28;19913;-68
2023/01/28 00:50:21;;;;;;;;;;;-0.60;99.90;;;;;;5058450;28;19919;-68
2023/01/28 00:52:47;;;;;;;;;;;-0.60;99.90;;;;;;5073740;28;19924;-68
2023/01/28 00:55:13;;;;;;;;;;;-0.60;99.90;;;;;;5078631;28;19912;-68
2023/01/28 00:57:38;;;;;;;;;;;-0.60;99.90;;;;;;5094345;28;19920;-68
2023/01/28 01:00:04;;;;;;;;;;;-0.60;99.90;;;;;;5094335;28;19913;-68
2023/01/28 01:02:30;;;;;;;;;;;-0.60;99.90;;;;;;5094302;28;19922;-68
2023/01/28 01:04:59;;;;;;;;;;;-0.60;99.90;;;;;;5092107;28;20352;-68
2023/01/28 01:07:33;;;;;;;;;;;-0.60;99.90;;;;;;5055283;28;19944;-68
2023/01/28 01:10:03;;;;;;;;;;;-0.60;99.90;;;;;;5055951;28;19958;-68
2023/01/28 01:12:28;;;;;;;;;;;-0.60;99.90;;;;;;5073590;28;19921;-68
2023/01/28 01:14:56;;;;;;;;;;;-0.60;99.90;;;;;;5057296;28;19939;-68
2023/01/28 01:17:21;;;;;;;;;;;-0.60;99.90;;;;;;5093844;28;19916;-68
2023/01/28 01:19:47;;;;;;;;;;;-0.60;99.90;;;;;;5093970;28;19912;-68
2023/01/28 01:22:12;;;;;;;;;;;-0.60;99.90;;;;;;5088839;28;20003;-68
2023/01/28 01:24:38;;;;;;;;;;;-0.60;99.90;;;;;;5072647;28;19909;-68
2023/01/28 01:27:04;;;;;;;;;;;-0.60;99.90;;;;;;5075818;28;19957;-68
2023/01/28 01:29:30;;;;;;;;;;;-0.60;99.90;;;;;;5075931;28;19923;-68
2023/01/28 01:31:56;;;;;;;;;;;-0.60;99.90;;;;;;5094053;28;19920;-68
2023/01/28 01:34:21;;;;;;;;;;;-0.60;99.90;;;;;;5093887;28;19920;-68
2023/01/28 01:36:47;;;;;;;;;;;-0.60;99.90;;;;;;5076793;28;19923;-68
2023/01/28 01:39:13;;;;;;;;;;;-0.70;99.90;;;;;;5073551;28;19960;-68
2023/01/28 01:41:38;;;;;;;;;;;-0.70;99.90;;;;;;5075774;28;19919;-68
2023/01/28 01:44:05;;;;;;;;;;;-0.70;99.90;;;;;;5077653;28;20322;-68
2023/01/28 01:46:36;;;;;;;;;;;-0.70;99.90;;;;;;5074319;28;19926;-68
2023/01/28 01:49:07;;;;;;;;;;;-0.70;99.90;;;;;;5078032;28;20279;-68
2023/01/28 01:51:33;;;;;;;;;;;-0.70;99.90;;;;;;5077448;28;20429;-68
2023/01/28 01:53:59;;;;;;;;;;;-0.70;99.90;;;;;;5077492;28;19917;-68
2023/01/28 01:56:28;;;;;;;;;;;-0.70;99.90;;;;;;5072997;28;19916;-68
2023/01/28 01:58:55;;;;;;;;;;;-0.70;99.90;;;;;;5079413;28;19912;-68
2023/01/28 02:01:21;;;;;;;;;;;-0.70;99.90;;;;;;5098024;28;19912;-68
2023/01/28 02:03:54;;;;;;;;;;;-0.70;99.90;;;;;;5080878;28;19916;-68
2023/01/28 02:06:20;;;;;;;;;;;-0.70;99.90;;;;;;5090104;28;20433;-68
2023/01/28 02:08:46;;;;;;;;;;;-0.70;99.90;;;;;;5097266;28;19912;-69
2023/01/28 02:11:13;;;;;;;;;;;-0.70;99.90;;;;;;5072375;28;20279;-69
2023/01/28 02:13:45;;;;;;;;;;;-0.70;99.90;;;;;;5068562;28;20003;-69
2023/01/28 02:16:12;;;;;;;;;;;-0.70;99.90;;;;;;5072259;28;20374;-69
2023/01/28 02:18:37;;;;;;;;;;;-0.70;99.90;;;;;;5074017;28;19995;-69
2023/01/28 02:21:21;;;;;;;;;;;-0.70;99.90;;;;;;5093228;28;20024;-69
2023/01/28 02:23:50;;;;;;;;;;;-0.70;99.90;;;;;;5097164;28;20268;-69
2023/01/28 02:26:15;;;;;;;;;;;-0.70;99.90;;;;;;5095818;28;19919;-69
2023/01/28 02:28:48;;;;;;;;;;;-0.70;99.90;;;;;;5096775;28;19963;-69
2023/01/28 02:31:16;;;;;;;;;;;-0.70;99.90;;;;;;5097211;28;20279;-69
2023/01/28 02:33:44;;;;;;;;;;;-0.70;99.90;;;;;;5096350;28;20387;-69
2023/01/28 02:36:32;;;;;;;;;;;-0.80;99.90;;;;;;5096720;28;19916;-69
2023/01/28 02:39:00;;;;;;;;;;;-0.80;99.90;;;;;;5096439;28;19954;-68
2023/01/28 02:41:35;;;;;;;;;;;-0.90;99.90;;;;;;5097085;28;19912;-69
2023/01/28 02:44:01;;;;;;;;;;;-0.90;99.90;;;;;;5095339;28;20313;-69
2023/01/28 02:49:14;;;;;;;;;;;-1.00;99.90;;;;;;5096176;28;19966;-69
2023/01/28 02:51:42;;;;;;;;;;;-1.10;99.90;;;;;;5096363;28;20375;-69
2023/01/28 02:54:20;;;;;;;;;;;-1.00;99.90;;;;;;5095917;28;20011;-70
2023/01/28 02:56:54;;;;;;;;;;;-1.00;99.90;;;;;;5095019;28;19919;-69
2023/01/28 02:59:29;;;;;;;;;;;-1.00;99.90;;;;;;5094243;28;19924;-69
2023/01/28 03:02:07;;;;;;;;;;;-0.90;99.90;;;;;;5096066;28;19912;-70
2023/01/28 03:04:57;;;;;;;;;;;-0.90;99.90;;;;;;5096487;28;19994;-68
2023/01/28 03:07:24;;;;;;;;;;;-0.90;99.90;;;;;;5074780;28;19917;-69
2023/01/28 03:09:51;;;;;;;;;;;-1.00;99.90;;;;;;5076116;28;19920;-69
2023/01/28 03:37:27;;;;;;;;;;;-1.10;99.90;;;;;;5095342;28;20062;-69
2023/01/28 03:39:56;;;;;;;;;;;-1.10;99.90;;;;;;5094306;28;19919;-69
2023/01/28 03:42:22;;;;;;;;;;;-1.10;99.90;;;;;;5094427;28;19912;-68
2023/01/28 03:44:57;;;;;;;;;;;-1.10;99.90;;;;;;5094065;28;20233;-69
2023/01/28 03:47:29;;;;;;;;;;;-1.10;99.90;;;;;;5093634;28;20345;-69
2023/01/28 03:49:56;;;;;;;;;;;-1.00;99.90;;;;;;5095482;28;19912;-69
2023/01/28 03:52:23;;;;;;;;;;;-1.00;99.90;;;;;;5095354;28;19927;-69
2023/01/28 03:54:51;;;;;;;;;;;-1.00;99.90;;;;;;5093767;28;19965;-69
2023/01/28 03:57:21;;;;;;;;;;;-1.10;99.90;;;;;;5094690;28;20355;-68
2023/01/28 03:59:48;;;;;;;;;;;-1.00;99.90;;;;;;5095466;28;20275;-69
2023/01/28 04:02:14;;;;;;;;;;;-1.00;99.90;;;;;;5095070;28;19956;-69
2023/01/28 04:04:41;;;;;;;;;;;-0.90;99.90;;;;;;5092984;28;19948;-69
2023/01/28 04:07:07;;;;;;;;;;;-1.00;99.90;;;;;;5093808;28;19940;-69
2023/01/28 04:09:36;;;;;;;;;;;-1.00;99.90;;;;;;5095170;28;19919;-69
2023/01/28 04:12:02;;;;;;;;;;;-1.00;99.90;;;;;;5094854;28;20363;-69
2023/01/28 04:14:28;;;;;;;;;;;-1.00;99.90;;;;;;5093851;28;20383;-68
2023/01/28 04:16:54;;;;;;;;;;;-1.00;99.90;;;;;;5094760;28;19912;-69
2023/01/28 04:19:20;;;;;;;;;;;-1.00;99.90;;;;;;5093205;28;20348;-69
2023/01/28 04:21:47;;;;;;;;;;;-1.00;99.90;;;;;;5094168;28;19943;-69
2023/01/28 04:24:13;;;;;;;;;;;-1.00;99.90;;;;;;5094846;28;19988;-69
2023/01/28 04:26:39;;;;;;;;;;;-1.00;99.90;;;;;;5094758;28;19912;-69
2023/01/28 04:29:05;;;;;;;;;;;-1.00;99.90;;;;;;5093445;28;19919;-69
2023/01/28 04:31:30;;;;;;;;;;;-1.00;99.90;;;;;;5093367;28;19912;-69
2023/01/28 04:33:56;;;;;;;;;;;-1.00;99.90;;;;;;5094332;28;19978;-68
2023/01/28 04:36:22;;;;;;;;;;;-1.00;99.90;;;;;;5093032;28;19919;-69
2023/01/28 04:38:48;;;;;;;;;;;-0.90;99.90;;;;;;5094473;28;20002;-69
2023/01/28 04:41:13;;;;;;;;;;;-0.90;99.90;;;;;;5094118;28;19994;-69
2023/01/28 04:43:39;;;;;;;;;;;-0.90;99.90;;;;;;5093427;28;20054;-69
2023/01/28 04:46:04;;;;;;;;;;;-0.90;99.90;;;;;;5094536;28;19916;-69
2023/01/28 04:48:30;;;;;;;;;;;-0.90;99.90;;;;;;5093879;28;19958;-69
2023/01/28 04:50:56;;;;;;;;;;;-0.90;99.90;;;;;;5089294;28;20386;-69
2023/01/28 04:53:22;;;;;;;;;;;-0.90;99.90;;;;;;5092794;28;19920;-69
2023/01/28 04:55:47;;;;;;;;;;;-0.90;99.90;;;;;;5093016;28;19942;-69
2023/01/28 04:58:13;;;;;;;;;;;-0.90;99.90;;;;;;5094437;28;20319;-69
2023/01/28 05:00:39;;;;;;;;;;;-0.80;99.90;;;;;;5094424;28;20267;-69
2023/01/28 05:03:04;;;;;;;;;;;-0.80;99.90;;;;;;5094062;28;19919;-69
2023/01/28 05:05:30;;;;;;;;;;;-0.80;99.90;;;;;;5094012;28;20032;-69
2023/01/28 05:07:56;;;;;;;;;;;-0.80;99.90;;;;;;5093998;28;19912;-69
2023/01/28 05:10:22;;;;;;;;;;;-0.80;99.90;;;;;;5094235;28;19938;-69
2023/01/28 05:12:48;;;;;;;;;;;-0.80;99.90;;;;;;5094156;28;20371;-69
2023/01/28 05:15:17;;;;;;;;;;;-0.80;99.90;;;;;;5092464;28;19916;-69
2023/01/28 05:17:43;;;;;;;;;;;-0.90;99.90;;;;;;5097869;28;20004;-69
2023/01/28 05:20:10;;;;;;;;;;;-0.90;99.90;;;;;;5097716;28;19978;-69
2023/01/28 05:22:35;;;;;;;;;;;-0.90;99.90;;;;;;5078169;28;19920;-69
2023/01/28 05:25:03;;;;;;;;;;;-0.80;99.90;;;;;;5077864;28;19909;-69
2023/01/28 05:27:29;;;;;;;;;;;-0.90;99.90;;;;;;5097072;28;20015;-69
2023/01/28 05:29:55;;;;;;;;;;;-0.90;99.90;;;;;;5096779;28;19913;-69
2023/01/28 05:32:20;;;;;;;;;;;-1.00;99.90;;;;;;5098182;28;19923;-69
2023/01/28 05:34:46;;;;;;;;;;;-0.90;99.90;;;;;;5097722;28;19912;-69
2023/01/28 05:37:12;;;;;;;;;;;-0.80;99.90;;;;;;5096809;28;19912;-69
2023/01/28 05:39:37;;;;;;;;;;;-0.80;99.90;;;;;;5097932;28;19978;-69
2023/01/28 05:42:03;;;;;;;;;;;-0.80;99.90;;;;;;5097804;28;20348;-69
2023/01/28 05:44:29;;;;;;;;;;;-0.80;99.90;;;;;;5097598;28;19912;-69
2023/01/28 05:46:54;;;;;;;;;;;-0.80;99.90;;;;;;5096513;28;19921;-70
2023/01/28 05:49:21;;;;;;;;;;;-0.90;99.90;;;;;;5097724;28;19913;-69
2023/01/28 05:51:47;;;;;;;;;;;-0.80;99.90;;;;;;5096054;28;19917;-69
2023/01/28 05:54:12;;;;;;;;;;;-0.80;99.90;;;;;;5097478;28;19916;-69
2023/01/28 05:56:39;;;;;;;;;;;-0.80;99.90;;;;;;5096049;28;20006;-69
2023/01/28 05:59:04;;;;;;;;;;;-0.80;99.90;;;;;;5097522;28;19912;-69
2023/01/28 06:01:30;;;;;;;;;;;-0.80;99.90;;;;;;5097533;28;19966;-69
2023/01/28 06:03:56;;;;;;;;;;;-0.80;99.90;;;;;;5095962;28;19912;-69
2023/01/28 06:06:21;;;;;;;;;;;-0.80;99.90;;;;;;5097091;28;19991;-69
2023/01/28 06:08:47;;;;;;;;;;;-0.80;99.90;;;;;;5096775;28;20421;-69
2023/01/28 06:11:12;;;;;;;;;;;-0.80;99.90;;;;;;5095672;28;20434;-69
2023/01/28 06:13:40;;;;;;;;;;;-0.80;99.90;;;;;;5097084;28;20379;-69
2023/01/28 06:16:06;;;;;;;;;;;-0.90;99.90;;;;;;5095696;28;19938;-69
2023/01/28 06:18:31;;;;;;;;;;;-0.80;99.90;;;;;;5095927;28;20064;-69
2023/01/28 06:20:57;;;;;;;;;;;-0.90;99.90;;;;;;5097316;28;19912;-69
2023/01/28 06:23:22;;;;;;;;;;;-0.80;99.90;;;;;;5095805;28;20268;-69
2023/01/28 06:25:52;;;;;;;;;;;-0.90;99.90;;;;;;5096965;28;19919;-69
2023/01/28 06:28:17;;;;;;;;;;;-1.00;99.90;;;;;;5074909;28;19948;-69
2023/01/28 06:30:43;;;;;;;;;;;-1.00;99.90;;;;;;5077149;28;19944;-69
2023/01/28 06:33:08;;;;;;;;;;;-1.00;99.90;;;;;;5075483;28;19921;-69
2023/01/28 06:35:34;;;;;;;;;;;-1.00;99.90;;;;;;5078938;28;20349;-69
2023/01/28 06:38:00;;;;;;;;;;;-1.00;99.90;;;;;;5095637;28;19915;-69
2023/01/28 06:40:25;;;;;;;;;;;-1.00;99.90;;;;;;5095701;28;19912;-69
2023/01/28 06:42:51;;;;;;;;;;;-1.10;99.90;;;;;;5095128;28;19912;-69
2023/01/28 06:45:16;;;;;;;;;;;-1.10;99.90;;;;;;5095560;28;19965;-69
2023/01/28 06:47:42;;;;;;;;;;;-0.90;99.90;;;;;;5096287;28;20421;-69
2023/01/28 06:50:08;;;;;;;;;;;-0.90;99.90;;;;;;5096351;28;19912;-69
2023/01/28 06:52:34;;;;;;;;;;;-0.90;99.90;;;;;;5095353;28;20011;-69
2023/01/28 06:55:00;;;;;;;;;;;-0.80;99.90;;;;;;5095209;28;20259;-69
2023/01/28 06:57:26;;;;;;;;;;;-0.80;99.90;;;;;;5095905;28;19912;-69
2023/01/28 06:59:51;;;;;;;;;;;-0.80;99.90;;;;;;5095848;28;19957;-69
2023/01/28 07:02:17;;;;;;;;;;;-0.80;99.90;;;;;;5095333;28;19947;-69
2023/01/28 07:04:42;;;;;;;;;;;-0.80;99.90;;;;;;5095745;28;19916;-69
2023/01/28 07:07:08;;;;;;;;;;;-0.80;99.90;;;;;;5095047;28;20355;-69
2023/01/28 07:09:33;;;;;;;;;;;-0.80;99.90;;;;;;5096526;28;20257;-69
2023/01/28 07:11:59;;;;;;;;;;;-0.70;99.90;;;;;;5094180;28;20010;-69
2023/01/28 07:14:25;;;;;;;;;;;-0.70;99.90;;;;;;5095020;28;19947;-69
2023/01/28 07:16:50;;;;;;;;;;;-0.80;99.90;;;;;;5094333;28;20264;-69
2023/01/28 07:19:16;;;;;;;;;;;-0.70;99.90;;;;;;5098656;28;19919;-69
2023/01/28 07:21:41;;;;;;;;;;;-0.80;99.90;;;;;;5101250;28;20381;-69
2023/01/28 07:24:07;;;;;;;;;;;-0.80;99.90;;;;;;5077958;28;20423;-69
2023/01/28 07:26:33;;;;;;;;;;;-0.80;99.90;;;;;;5077459;28;19912;-69
2023/01/28 07:28:59;;;;;;;;;;;-0.80;99.90;;;;;;5096286;28;20368;-69
2023/01/28 07:31:24;;;;;;;;;;;-0.80;99.90;;;;;;5068036;28;19919;-69
2023/01/28 07:33:50;;;;;;;;;;;-0.80;99.90;;;;;;5079928;28;19924;-69
2023/01/28 07:36:15;;;;;;;;;;;-0.70;99.90;;;;;;5095971;28;19973;-69
2023/01/28 07:38:41;;;;;;;;;;;-0.60;99.90;;;;;;5076677;28;19966;-69
2023/01/28 07:41:07;;;;;;;;;;;-0.50;99.90;;;;;;5095640;28;19912;-69
2023/01/28 07:43:32;;;;;;;;;;;-0.50;99.90;;;;;;5095365;28;20329;-69
2023/01/28 07:46:01;;;;;;;;;;;-0.50;99.90;;;;;;5076045;28;19947;-69
2023/01/28 07:48:27;;;;;;;;;;;-0.50;99.90;;;;;;5076036;28;19919;-69
2023/01/28 07:50:52;;;;;;;;;;;-0.30;99.90;;;;;;5093466;28;19912;-70
2023/01/28 07:53:19;;;;;;;;;;;-0.20;99.90;;;;;;5075801;28;20407;-69
2023/01/28 07:55:45;;;;;;;;;;;-0.20;99.90;;;;;;5093865;28;20379;-69
2023/01/28 07:58:11;;;;;;;;;;;-0.10;99.90;;;;;;5075445;28;19920;-68
2023/01/28 08:00:37;;;;;;;;;;;-0.10;99.90;;;;;;5093915;28;19916;-67
2023/01/28 08:03:04;;;;;;;;;;;0.00;99.90;;;;;;5093925;28;20283;-67
2023/01/28 08:05:44;;;;;;;;;;;0.00;99.90;;;;;;5090288;28;19912;-68
2023/01/28 08:08:09;;;;;;;;;;;0.10;99.90;;;;;;5091752;28;20367;-68
2023/01/28 08:10:35;;;;;;;;;;;0.10;99.90;;;;;;5092679;28;19912;-68
2023/01/28 08:13:01;;;;;;;;;;;0.20;99.90;;;;;;5073925;28;20008;-67
2023/01/28 08:15:27;;;;;;;;;;;0.30;99.90;;;;;;5086444;28;19912;-67
2023/01/28 08:17:54;;;;;;;;;;;0.30;99.90;;;;;;5082458;28;19916;-67
2023/01/28 08:20:20;;;;;;;;;;;0.30;99.90;;;;;;5094635;28;19966;-66
2023/01/28 08:22:45;;;;;;;;;;;0.30;99.90;;;;;;5092429;28;19912;-66
2023/01/28 08:25:11;;;;;;;;;;;0.20;99.90;;;;;;5093209;28;20002;-66
2023/01/28 08:27:37;;;;;;;;;;;0.20;99.90;;;;;;5093386;28;20317;-66
2023/01/28 08:30:03;;;;;;;;;;;0.20;99.90;;;;;;5092872;28;19912;-66
2023/01/28 08:32:29;;;;;;;;;;;0.20;99.90;;;;;;5093263;28;19916;-66
2023/01/28 08:34:54;;;;;;;;;;;0.30;99.90;;;;;;5093962;28;20267;-67
2023/01/28 08:37:20;;;;;;;;;;;0.20;99.90;;;;;;5094048;28;19919;-68
2023/01/28 08:39:46;;;;;;;;;;;0.20;99.90;;;;;;5093569;28;19912;-66
2023/01/28 08:42:11;;;;;;;;;;;0.20;99.90;;;;;;5092961;28;19912;-68
2023/01/28 08:44:37;;;;;;;;;;;0.20;99.90;;;;;;5093255;28;19920;-66
2023/01/28 08:47:02;;;;;;;;;;;0.20;99.90;;;;;;5094088;28;19912;-69
2023/01/28 08:49:28;;;;;;;;;;;0.10;99.90;;;;;;5094419;28;20002;-66
2023/01/28 08:51:54;;;;;;;;;;;0.10;99.90;;;;;;5093882;28;20347;-69
2023/01/28 08:54:20;;;;;;;;;;;0.10;99.90;;;;;;5094374;28;19920;-67
2023/01/28 08:56:47;;;;;;;;;;;0.10;99.90;;;;;;5094299;28;19927;-68
2023/01/28 08:59:13;;;;;;;;;;;0.20;99.90;;;;;;5093074;28;19919;-68
2023/01/28 09:01:39;;;;;;;;;;;0.20;99.90;;;;;;5092134;28;19919;-67
2023/01/28 09:04:05;;;;;;;;;;;0.20;99.90;;;;;;5094538;28;19948;-68
2023/01/28 09:06:31;;;;;;;;;;;0.20;99.90;;;;;;5093391;28;20359;-68
2023/01/28 09:08:57;;;;;;;;;;;0.20;99.90;;;;;;5104797;28;19943;-68
2023/01/28 09:11:23;;;;;;;;;;;0.20;99.90;;;;;;5091980;28;19912;-67
2023/01/28 09:13:48;;;;;;;;;;;0.30;99.90;;;;;;5089197;28;19945;-67
2023/01/28 09:16:14;;;;;;;;;;;0.30;99.90;;;;;;5091474;28;20018;-68
2023/01/28 09:18:40;;;;;;;;;;;0.30;99.90;;;;;;5092899;28;19920;-68
2023/01/28 09:21:06;;;;;;;;;;;0.40;99.90;;;;;;5089691;28;20013;-68
2023/01/28 09:23:38;;;;;;;;;;;0.40;99.90;;;;;;5089894;28;19916;-68
2023/01/28 09:26:04;;;;;;;;;;;0.40;99.90;;;;;;5090821;28;19912;-68
2023/01/28 09:28:30;;;;;;;;;;;0.50;99.90;;;;;;5091986;28;19947;-68
2023/01/28 09:31:06;;;;;;;;;;;0.50;99.90;;;;;;5090247;28;20561;-68
2023/01/28 09:33:31;;;;;;;;;;;;;;;;;;5093988;28;19964;-70
2023/01/28 09:36:01;;;;;;;;;;;0.50;99.90;;;;;;5091444;28;20003;-68
2023/01/28 09:38:28;;;;;;;;;;;0.70;99.90;;;;;;5092476;28;19919;-68
2023/01/28 09:40:55;;;;;;;;;;;0.90;99.90;;;;;;5094878;28;19919;-68
2023/01/28 09:43:43;;;;;;;;;;;0.90;99.90;;;;;;5124633;28;19940;-68
2023/01/28 09:46:13;;;;;;;;;;;0.70;99.90;;;;;;5091269;28;20391;-68
2023/01/28 09:48:40;;;;;;;;;;;0.60;99.90;;;;;;5107987;28;19911;-68
2023/01/28 09:51:21;;;;;;;;;;;0.90;99.90;;;;;;5109554;28;20359;-68
2023/01/28 09:53:49;;;;;;;;;;;1.10;99.90;;;;;;5105848;28;19919;-68
2023/01/28 09:56:25;;;;;;;;;;;1.40;99.90;;;;;;5102205;28;19920;-68
2023/01/28 09:58:50;;;;;;;;;;;1.50;99.90;;;;;;5087477;28;19977;-69
2023/01/28 10:01:16;;;;;;;;;;;1.70;99.90;;;;;;5092597;28;19913;-68
2023/01/28 10:04:08;;;;;;;;;;;1.50;99.90;;;;;;5098093;28;20344;-68
2023/01/28 10:06:53;;;;;;;;;;;1.20;99.90;;;;;;5062001;28;19983;-68
2023/01/28 10:09:22;;;;;;;;;;;0.90;99.90;;;;;;5112031;28;20358;-68
2023/01/28 10:12:09;;;;;;;;;;;0.80;99.90;;;;;;5107598;28;19959;-67
2023/01/28 10:14:41;;;;;;;;;;;0.70;99.90;;;;;;5096427;28;19916;-67
2023/01/28 10:17:10;;;;;;;;;;;0.80;99.90;;;;;;5075926;28;19993;-68
2023/01/28 10:19:44;;;;;;;;;;;1.00;99.90;;;;;;5077168;28;20007;-67
2023/01/28 10:22:15;;;;;;;;;;;0.70;99.90;;;;;;5090526;28;19916;-67
2023/01/28 10:24:44;;;;;;;;;;;1.10;99.90;;;;;;5108376;28;19920;-68
2023/01/28 10:27:15;;;;;;;;;;;1.10;99.90;;;;;;5100062;28;20007;-68
2023/01/28 10:29:44;;;;;;;;;;;1.60;99.90;;;;;;5111189;28;19945;-67
2023/01/28 10:32:28;;;;;;;;;;;1.20;99.90;;;;;;5098192;28;20367;-68
2023/01/28 10:34:55;;;;;;;;;;;1.10;99.90;;;;;;5096699;28;19916;-67
2023/01/28 10:37:20;;;;;;;;;;;1.10;99.90;;;;;;5095722;28;20302;-68
2023/01/28 10:39:46;;;;;;;;;;;1.00;99.90;;;;;;5104959;28;19957;-68
2023/01/28 10:42:21;;;;;;;;;;;0.90;99.90;;;;;;5103816;28;19948;-67
2023/01/28 10:44:48;;;;;;;;;;;0.90;99.90;;;;;;5096812;28;19916;-68
2023/01/28 10:47:15;;;;;;;;;;;1.00;99.90;;;;;;5109162;28;19952;-68
2023/01/28 10:49:45;;;;;;;;;;;0.90;99.90;;;;;;5115599;28;19951;-67
2023/01/28 10:52:14;;;;;;;;;;;1.10;99.90;;;;;;5115610;28;19941;-67
2023/01/28 10:54:40;;;;;;;;;;;1.00;99.90;;;;;;5115946;28;20359;-68
2023/01/28 10:57:11;;;;;;;;;;;1.20;99.90;;;;;;5117117;28;19912;-67
2023/01/28 10:59:41;;;;;;;;;;;1.20;99.90;;;;;;5117133;28;19912;-67
2023/01/28 11:02:18;;;;;;;;;;;1.20;99.90;;;;;;5096370;28;19912;-68
2023/01/28 11:04:44;;;;;;;;;;;1.30;99.90;;;;;;5095422;28;19965;-68
2023/01/28 11:07:19;;;;;;;;;;;1.30;99.90;;;;;;5096677;28;19915;-68
2023/01/28 11:09:48;;;;;;;;;;;1.10;99.90;;;;;;5095276;28;19913;-68
2023/01/28 11:12:17;;;;;;;;;;;1.10;99.90;;;;;;5096464;28;19916;-68
2023/01/28 11:14:48;;;;;;;;;;;1.20;99.90;;;;;;5097505;28;19934;-68
2023/01/28 11:17:15;;;;;;;;;;;1.30;99.90;;;;;;5105853;28;19919;-68
2023/01/28 11:19:41;;;;;;;;;;;1.10;99.90;;;;;;5108403;28;20002;-68
2023/01/28 11:22:16;;;;;;;;;;;1.20;99.90;;;;;;5094898;28;20381;-68
2023/01/28 11:24:42;;;;;;;;;;;1.30;99.90;;;;;;5103497;28;19991;-68
2023/01/28 11:27:11;;;;;;;;;;;1.30;99.90;;;;;;5099972;28;19947;-68
2023/01/28 11:29:38;;;;;;;;;;;1.30;99.90;;;;;;5094624;28;19919;-68
2023/01/28 11:32:06;;;;;;;;;;;1.30;99.90;;;;;;5094597;28;19948;-69
2023/01/28 11:34:33;;;;;;;;;;;1.20;99.90;;;;;;5089352;28;19924;-68
2023/01/28 11:37:24;;;;;;;;;;;1.40;99.90;;;;;;5104657;28;19939;-67
2023/01/28 11:40:19;;;;;;;;;;;1.30;99.90;;;;;;5073991;28;19916;-68
2023/01/28 11:42:52;;;;;;;;;;;1.40;99.90;;;;;;5084095;28;20405;-68
2023/01/28 11:45:19;;;;;;;;;;;1.50;99.90;;;;;;5108926;28;19912;-68
2023/01/28 11:47:49;;;;;;;;;;;1.50;99.90;;;;;;5088096;28;20307;-68
2023/01/28 11:50:24;;;;;;;;;;;1.40;99.90;;;;;;5090856;28;19912;-68
2023/01/28 11:53:05;;;;;;;;;;;1.60;99.90;;;;;;5089946;28;20329;-68
2023/01/28 11:55:45;;;;;;;;;;;1.80;99.90;;;;;;5088434;28;20008;-67
2023/01/28 11:58:11;;;;;;;;;;;1.60;99.90;;;;;;5090303;28;20379;-67
2023/01/28 12:00:54;;;;;;;;;;;1.60;99.90;;;;;;5078984;28;19912;-68
2023/01/28 12:03:34;;;;;;;;;;;1.50;99.90;;;;;;5089639;28;20275;-67
2023/01/28 12:06:11;;;;;;;;;;;1.30;99.90;;;;;;5088521;28;19916;-67
2023/01/28 12:08:44;;;;;;;;;;;1.50;99.90;;;;;;5082789;28;19919;-67
2023/01/28 12:14:27;;;;;;;;;;;1.50;99.90;;;;;;5088746;28;20467;-67
2023/01/28 12:17:11;;;;;;;;;;;1.40;99.90;;;;;;5087775;28;20356;-67
2023/01/28 12:19:45;;;;;;;;;;;1.40;99.90;;;;;;5088445;28;19923;-67
2023/01/28 12:22:14;;;;;;;;;;;1.40;99.90;;;;;;5087601;28;19923;-67
2023/01/28 12:25:03;;;;;;;;;;;1.30;99.90;;;;;;5089858;28;19912;-66
2023/01/28 12:27:47;;;;;;;;;;;1.40;99.90;;;;;;5088169;28;19912;-67
2023/01/28 12:30:25;;;;;;;;;;;1.40;99.90;;;;;;5088975;28;19912;-67
2023/01/28 12:32:53;;;;;;;;;;;1.30;99.90;;;;;;5083763;28;20085;-67
2023/01/28 12:35:22;;;;;;;;;;;1.40;99.90;;;;;;5068279;28;20393;-67
2023/01/28 12:37:47;;;;;;;;;;;1.40;99.90;;;;;;5068666;28;19913;-67
2023/01/28 12:40:31;;;;;;;;;;;1.40;99.90;;;;;;5069985;28;19923;-67
2023/01/28 12:43:26;;;;;;;;;;;1.40;99.90;;;;;;5086987;28;19970;-67
2023/01/28 12:46:01;;;;;;;;;;;1.40;99.90;;;;;;5078657;28;19939;-67
2023/01/28 12:48:33;;;;;;;;;;;1.30;99.90;;;;;;5086516;28;19947;-67
2023/01/28 12:51:22;;;;;;;;;;;1.40;99.90;;;;;;5087110;28;19912;-66
2023/01/28 12:54:08;;;;;;;;;;;1.30;99.90;;;;;;5088089;28;19920;-67
2023/01/28 12:56:36;;;;;;;;;;;1.30;99.90;;;;;;5087666;28;20063;-67
2023/01/28 12:59:20;;;;;;;;;;;1.30;99.90;;;;;;5087566;28;20399;-67
2023/01/28 13:01:59;;;;;;;;;;;1.30;99.90;;;;;;5087201;28;20249;-67
2023/01/28 13:04:39;;;;;;;;;;;1.30;99.90;;;;;;5088205;28;19920;-67
2023/01/28 13:07:05;;;;;;;;;;;1.30;99.90;;;;;;5087859;28;19970;-67
2023/01/28 13:09:32;;;;;;;;;;;1.30;99.90;;;;;;5087835;28;20345;-67
2023/01/28 13:11:59;;;;;;;;;;;1.20;99.90;;;;;;5087603;28;19912;-67
2023/01/28 13:14:28;;;;;;;;;;;1.20;99.90;;;;;;5087218;28;19912;-67
2023/01/28 13:16:53;;;;;;;;;;;1.20;99.90;;;;;;5088131;28;19912;-67
2023/01/28 13:19:19;;;;;;;;;;;1.20;99.90;;;;;;5086625;28;20337;-67
2023/01/28 13:21:46;;;;;;;;;;;1.20;99.90;;;;;;5087395;28;19919;-67
2023/01/28 13:24:12;;;;;;;;;;;1.20;99.90;;;;;;5087747;28;19923;-67
2023/01/28 13:26:41;;;;;;;;;;;1.20;99.90;;;;;;5087994;28;19912;-67
2023/01/28 13:29:26;;;;;;;;;;;1.20;99.90;;;;;;5087527;28;19912;-67
2023/01/28 13:31:54;;;;;;;;;;;1.20;99.90;;;;;;5087076;28;19912;-67
2023/01/28 13:34:28;;;;;;;;;;;1.20;99.90;;;;;;5088408;28;20536;-67
2023/01/28 13:36:55;;;;;;;;;;;1.20;99.90;;;;;;5088274;28;20443;-67
2023/01/28 13:39:22;;;;;;;;;;;1.20;99.90;;;;;;5091873;28;19950;-67
2023/01/28 13:41:52;;;;;;;;;;;1.20;99.90;;;;;;5091595;28;20387;-67
2023/01/28 13:44:24;;;;;;;;;;;1.20;99.90;;;;;;5091685;28;19912;-67
2023/01/28 13:46:51;;;;;;;;;;;1.20;99.90;;;;;;5092230;28;19916;-67
2023/01/28 13:49:29;;;;;;;;;;;1.20;99.90;;;;;;5088219;28;19951;-69
2023/01/28 13:52:27;;;;;;;;;;;1.20;99.90;;;;;;5091217;28;19912;-68
2023/01/28 13:54:53;;;;;;;;;;;1.20;99.90;;;;;;5067354;28;20520;-67
2023/01/28 13:57:22;;;;;;;;;;;1.20;99.90;;;;;;5089688;28;19912;-67
2023/01/28 13:59:53;;;;;;;;;;;1.20;99.90;;;;;;5090996;28;20011;-67
2023/01/28 14:02:30;;;;;;;;;;;1.20;99.90;;;;;;5091687;28;20053;-67
2023/01/28 14:05:07;;;;;;;;;;;1.20;99.90;;;;;;5091153;28;19913;-67
2023/01/28 14:07:51;;;;;;;;;;;1.10;99.90;;;;;;5090870;28;20275;-67
2023/01/28 14:10:27;;;;;;;;;;;1.10;99.90;;;;;;5091183;28;19923;-68
2023/01/28 14:13:05;;;;;;;;;;;1.20;99.90;;;;;;5090260;28;20020;-67
2023/01/28 14:15:33;;;;;;;;;;;1.20;99.90;;;;;;5090747;28;19920;-67
2023/01/28 14:17:59;;;;;;;;;;;1.20;99.90;;;;;;5097137;28;19916;-67
2023/01/28 14:20:39;;;;;;;;;;;1.20;99.90;;;;;;5108495;28;19919;-67
2023/01/28 14:23:12;;;;;;;;;;;1.20;99.90;;;;;;5093573;28;19912;-67
2023/01/28 14:25:38;;;;;;;;;;;1.10;99.90;;;;;;5094641;28;19954;-67
2023/01/28 14:28:05;;;;;;;;;;;1.10;99.90;;;;;;5098241;28;19958;-68
2023/01/28 14:30:41;;;;;;;;;;;1.20;99.90;;;;;;5099603;28;19912;-69
2023/01/28 14:33:08;;;;;;;;;;;1.10;99.90;;;;;;5095915;28;19956;-68
2023/01/28 14:35:36;;;;;;;;;;;1.20;99.90;;;;;;5097198;28;19957;-68
2023/01/28 14:38:06;;;;;;;;;;;1.20;99.90;;;;;;5090010;28;20023;-67
2023/01/28 14:40:32;;;;;;;;;;;1.10;99.90;;;;;;5089522;28;19912;-68
2023/01/28 14:42:59;;;;;;;;;;;1.20;99.90;;;;;;5090360;28;19912;-68
2023/01/28 14:45:37;;;;;;;;;;;1.20;99.90;;;;;;5089298;28;20038;-68
2023/01/28 14:48:21;;;;;;;;;;;1.10;99.90;;;;;;5089541;28;20007;-67
2023/01/28 14:51:06;;;;;;;;;;;1.10;99.90;;;;;;5089407;28;19924;-68
2023/01/28 14:53:31;;;;;;;;;;;1.10;99.90;;;;;;5069669;28;19955;-68
2023/01/28 14:56:12;;;;;;;;;;;1.10;99.90;;;;;;5070509;28;19952;-69
2023/01/28 14:58:40;;;;;;;;;;;1.10;99.90;;;;;;5089983;28;19950;-68
2023/01/28 15:01:18;;;;;;;;;;;1.10;99.90;;;;;;5098531;28;20360;-69
2023/01/28 15:03:44;;;;;;;;;;;1.10;99.90;;;;;;5101024;28;19978;-67
2023/01/28 15:06:14;;;;;;;;;;;1.10;99.90;;;;;;5106489;28;19916;-68